Sds Wind — ICZW — position and weather

sailwx.info

Track history (hours):
 
Tides and Currents Weather Stations Pressure Air Temp Water Temp Dewpoint Dewpoint Depression Visibility Wind Speed Wind Dir Waves Ship Positions

Sds Wind

Last reported at 2017-Nov-18 16:48 UTC. Time now 2017-Nov-21 04:53 UTC.
Position N 43°25' E 004°56'.

Length 108 m; draft 4.8 m.

Type: Cargo ship. MMSI: 247182200.

Date/timePositionNaut miles runAvg speedWind from/ knotsBaromVisibWave heightAir tempDewpointWater temp
2017-Nov-18 16:48N 43°25' E 004°56'0 0.0
2017-Nov-18 02:27N 43°25' E 004°56'0 0.0
2017-Nov-17 22:15N 43°25' E 004°56'0 0.0
2017-Nov-17 21:18N 43°25' E 004°56'0 0.0
2017-Nov-16 20:24N 43°25' E 004°56'0 0.0
2017-Nov-16 19:54N 43°25' E 004°56'0 0.0
2017-Nov-16 19:24N 43°25' E 004°56'0 0.0
2017-Nov-16 04:57N 43°25' E 004°56'0 0.0
2017-Nov-16 04:24N 43°25' E 004°56'0 0.0
2017-Nov-15 21:48N 43°25' E 004°56'1 3.8
2017-Nov-15 21:29N 43°24' E 004°57'5 9.3
2017-Nov-15 20:58N 43°19' E 004°59'10 9.8
2017-Nov-15 19:59N 43°10' E 004°58'17710.9
2017-Nov-15 03:41N 41°11' E 002°00'210.1
2017-Nov-15 03:30N 41°10' E 001°58'510.3
2017-Nov-15 03:00N 41°08' E 001°52'510.2
2017-Nov-15 02:30N 41°05' E 001°47'510.3
2017-Nov-15 02:00N 41°02' E 001°41'610.4
2017-Nov-15 01:28N 40°59' E 001°35'  
2017-Nov-11 02:00N 37°45' W 000°21'511.0
2017-Nov-11 01:30N 37°40' W 000°25'510.9
2017-Nov-11 01:00N 37°36' W 000°29'510.9
2017-Nov-11 00:30N 37°32' W 000°33'611.1
2017-Nov-11 00:00N 37°32' W 000°40'611.4
2017-Nov-10 23:30N 37°32' W 000°47'611.7
2017-Nov-10 23:00N 37°32' W 000°55'3 4.6
2017-Nov-10 22:18N 37°34' W 000°58'229 6.8
2017-Nov-09 12:30N 35°59' W 005°18'  
Track history (hours):
 
Tides and Currents Weather Stations Pressure Air Temp Water Temp Dewpoint Dewpoint Depression Visibility Wind Speed Wind Dir Waves Ship Positions

Sds Wind

Last reported at 2017-Nov-18 16:48 UTC. Time now 2017-Nov-21 04:53 UTC.
Position N 43°25' E 004°56'.

Length 108 m; draft 4.8 m.

Type: Cargo ship. MMSI: 247182200.

Date/timePositionNaut miles runAvg speedWind from/ knotsBaromVisibWave heightAir tempDewpointWater temp
2017-Nov-18 16:48N 43°25' E 004°56'0 0.0
2017-Nov-18 02:27N 43°25' E 004°56'0 0.0
2017-Nov-17 22:15N 43°25' E 004°56'0 0.0
2017-Nov-17 21:18N 43°25' E 004°56'0 0.0
2017-Nov-16 20:24N 43°25' E 004°56'0 0.0
2017-Nov-16 19:54N 43°25' E 004°56'0 0.0
2017-Nov-16 19:24N 43°25' E 004°56'0 0.0
2017-Nov-16 04:57N 43°25' E 004°56'0 0.0
2017-Nov-16 04:24N 43°25' E 004°56'0 0.0
2017-Nov-15 21:48N 43°25' E 004°56'1 3.8
2017-Nov-15 21:29N 43°24' E 004°57'5 9.3
2017-Nov-15 20:58N 43°19' E 004°59'10 9.8
2017-Nov-15 19:59N 43°10' E 004°58'17710.9
2017-Nov-15 03:41N 41°11' E 002°00'210.1
2017-Nov-15 03:30N 41°10' E 001°58'510.3
2017-Nov-15 03:00N 41°08' E 001°52'510.2
2017-Nov-15 02:30N 41°05' E 001°47'510.3
2017-Nov-15 02:00N 41°02' E 001°41'610.4
2017-Nov-15 01:28N 40°59' E 001°35'  
2017-Nov-11 02:00N 37°45' W 000°21'511.0
2017-Nov-11 01:30N 37°40' W 000°25'510.9
2017-Nov-11 01:00N 37°36' W 000°29'510.9
2017-Nov-11 00:30N 37°32' W 000°33'611.1
2017-Nov-11 00:00N 37°32' W 000°40'611.4
2017-Nov-10 23:30N 37°32' W 000°47'611.7
2017-Nov-10 23:00N 37°32' W 000°55'3 4.6
2017-Nov-10 22:18N 37°34' W 000°58'229 6.8
2017-Nov-09 12:30N 35°59' W 005°18'  

Dump ship's entire track history